Flight Track Log - Related Links

Times and Time Zones

All times are in EDT time to prevent confusion due to time zone crossing. See the ASQ5958 flight status page for this flight to view local times or setup timezone preferences in your user account.

Time Position Orientation Groundspeed Altitude Reporting Facility
EDT Latitude Longitude Course Direction KTS MPH feet Rate Location/Type
Tue 12:42:45 PM 43.0925 -76.0825 286° West 175 201 1,500  Level Boston Center
Tue 12:43:10 PM 43.0786 -76.0619 133° Southeast 181 208 2,200 2,259 Climbing Boston Center
Tue 12:44:10 PM 43.0228 -76.0472 169° South 222 255 4,700 2,099 Climbing Boston Center
Tue 12:46:33 PM 43.0214 -76.2633 270° West 243 280 9,300 1,892 Climbing Cleveland Center
Tue 12:47:33 PM 43.0194 -76.3744 269° West 274 315 11,100 1,714 Climbing Cleveland Center
Tue 12:47:57 PM 43.0167 -76.4000 262° West 300 345 11,700 1,500 Climbing Toronto Center
Tue 12:48:00 PM 43.2469 -76.7573 286° West  Level FlightAware Approximate
Tue 12:48:33 PM 43.0214 -76.4936 274° West 297 342 12,600  Level Cleveland Center
Tue 12:49:33 PM 43.0239 -76.6183 272° West 319 367 14,100 1,550 Climbing Cleveland Center
Tue 12:50:33 PM 43.0261 -76.7489 271° West 334 384 15,700 1,400 Climbing Cleveland Center
Tue 12:51:33 PM 43.0306 -76.8822 273° West 347 399 16,900 1,100 Climbing Cleveland Center
Tue 12:52:33 PM 43.0328 -77.0214 271° West 359 413 17,900 1,100 Climbing Cleveland Center
Tue 12:53:33 PM 43.0350 -77.1633 271° West 372 428 19,100 1,200 Climbing Cleveland Center
Tue 12:54:33 PM 43.0372 -77.3108 271° West 377 434 20,300 1,150 Climbing Cleveland Center
Tue 12:55:33 PM 43.0600 -77.4575 282° West 390 449 21,400 1,150 Climbing Cleveland Center
Tue 12:56:33 PM 43.0617 -77.6050 271° West 390 449 22,600 1,250 Climbing Cleveland Center
Tue 12:57:33 PM 43.0719 -77.7581 275° West 395 455 23,900 1,200 Climbing Cleveland Center
Tue 12:58:33 PM 43.1106 -77.9014 290° West 401 461 25,000 1,150 Climbing Cleveland Center
Tue 12:59:33 PM 43.1494 -78.0450 290° West 401 461 26,200 1,200 Climbing Cleveland Center
Tue 01:00:33 PM 43.1547 -78.1956 273° West 401 461 27,400 1,100 Climbing Cleveland Center
Tue 01:01:33 PM 43.1492 -78.3436 267° West 395 455 28,400 1,000 Climbing Cleveland Center
Tue 01:02:33 PM 43.1458 -78.4947 268° West 395 455 29,400 950 Climbing Cleveland Center
Tue 01:03:33 PM 43.1400 -78.6458 267° West 405 466 30,300 950 Climbing Cleveland Center
Tue 01:04:33 PM 43.1364 -78.7967 268° West 405 466 31,300 1,043 Climbing Cleveland Center
Tue 01:05:28 PM 43.1167 -78.9000 255° West 400 460 32,300 1,043 Climbing Toronto Center
Tue 01:06:28 PM 43.1167 -79.0667 270° West 410 472 33,300 1,000 Climbing Toronto Center
Tue 01:07:28 PM 43.1167 -79.2167 270° West 410 472 34,300 1,000 Climbing Toronto Center
Tue 01:08:28 PM 43.1000 -79.3833 262° West 400 460 35,300 850 Climbing Toronto Center
Tue 01:09:28 PM 43.1000 -79.5500 270° West 400 460 36,000 350 Climbing Toronto Center
Tue 01:10:28 PM 43.1000 -79.6833 270° West 410 472 36,000  Level Toronto Center
Tue 01:11:28 PM 43.0833 -79.8333 261° West 430 495 36,000  Level Toronto Center
Tue 01:12:28 PM 43.0833 -80.0167 270° West 450 518 36,000  Level Toronto Center
Tue 01:13:28 PM 43.0667 -80.2000 263° West 460 529 36,000  Level Toronto Center
Tue 01:14:28 PM 43.0667 -80.3833 270° West 460 529 36,000  Level Toronto Center
Tue 01:15:28 PM 43.0667 -80.5500 270° West 460 529 36,000  Level Toronto Center
Tue 01:16:28 PM 43.0500 -80.7000 261° West 450 518 36,000  Level Toronto Center
Tue 01:17:28 PM 43.0333 -80.8833 263° West 450 518 36,000  Level Toronto Center
Tue 01:18:28 PM 43.0167 -81.0667 263° West 450 518 36,000  Level Toronto Center
Tue 01:19:28 PM 43.0167 -81.2333 270° West 450 518 36,000  Level Toronto Center
Tue 01:20:28 PM 43.0167 -81.4167 270° West 450 518 36,000  Level Toronto Center
Tue 01:21:28 PM 43.0167 -81.5667 270° West 450 518 36,000  Level Toronto Center
Tue 01:22:28 PM 43.0167 -81.7500 270° West 450 518 36,000  Level Toronto Center
Tue 01:23:28 PM 43.0000 -81.9167 262° West 450 518 36,000  Level Toronto Center
Tue 01:24:28 PM 43.0000 -82.1000 270° West 450 518 36,000  Level Toronto Center
Tue 01:25:28 PM 43.0000 -82.2500 270° West 450 518 36,000  Level Toronto Center
Tue 01:26:28 PM 43.0000 -82.4167 270° West 450 518 36,000  Level Toronto Center
Tue 01:27:28 PM 43.0000 -82.6000 270° West 460 529 36,000  Level Toronto Center
Tue 01:28:09 PM 43.0008 -82.7322 271° West 458 527 36,000  Level Cleveland Center
Tue 01:29:09 PM 42.9953 -82.9053 268° West 458 527 36,000  Level Cleveland Center
Tue 01:30:09 PM 42.9897 -83.0808 268° West 458 527 36,000  Level Cleveland Center
Tue 01:31:09 PM 42.9858 -83.2511 268° West 458 527 36,000  Level Cleveland Center
Tue 01:32:09 PM 42.9775 -83.4239 266° West 458 527 36,000 -250 Level Cleveland Center
Tue 01:33:09 PM 42.9733 -83.5939 268° West 458 527 35,500 -750 Descending Cleveland Center
Tue 01:34:09 PM 42.9622 -83.7667 265° West 458 527 34,500 -1,050 Descending Cleveland Center
Tue 01:35:09 PM 42.9472 -83.9331 263° West 458 527 33,400 -1,050 Descending Cleveland Center
Tue 01:36:09 PM 42.9319 -84.0969 263° West 453 521 32,400 -700 Descending Cleveland Center
Tue 01:37:09 PM 42.9142 -84.2603 262° West 448 516 32,000 -182 Descending Cleveland Center
Tue 01:38:21 PM 42.9003 -84.4233 263° West 433 498 32,000  Level Chicago Center
Tue 01:39:23 PM 42.8808 -84.6200 262° West 436 502 32,000  Level Chicago Center
Tue 01:40:25 PM 42.8642 -84.7825 262° West 435 501 32,000  Level Chicago Center
Tue 01:41:27 PM 42.8475 -84.9464 262° West 437 503 32,000  Level Chicago Center
Tue 01:42:29 PM 42.8294 -85.1133 262° West 441 507 32,000 -290 Level Chicago Center
Tue 01:43:31 PM 42.8103 -85.2836 261° West 451 519 31,400 -726 Descending Chicago Center
Tue 01:44:33 PM 42.7906 -85.4567 261° West 460 529 30,500 -912 Descending Chicago Center
Tue 01:45:36 PM 42.7647 -85.6169 258° West 441 507 29,500 -1,056 Descending Chicago Center
Tue 01:46:38 PM 42.7297 -85.8114 256° West 437 503 28,300 -1,113 Descending Chicago Center
Tue 01:47:40 PM 42.6994 -85.9800 256° West 451 519 27,200 -1,016 Descending Chicago Center
Tue 01:48:42 PM 42.6678 -86.1514 256° West 462 532 26,200 -823 Descending Chicago Center
Tue 01:49:44 PM 42.6367 -86.3172 256° West 452 520 25,500 -823 Descending Chicago Center
Tue 01:50:46 PM 42.6064 -86.4783 256° West 441 507 24,500 -1,161 Descending Chicago Center
Tue 01:51:48 PM 42.5772 -86.6342 256° West 431 496 23,100 -1,887 Descending Chicago Center
Tue 01:52:50 PM 42.5403 -86.8017 253° West 418 481 20,600 -2,613 Descending Chicago Center
Tue 01:53:52 PM 42.5028 -86.9408 250° West 400 460 17,700 -3,145 Descending Chicago Center
Tue 01:54:54 PM 42.4614 -87.0867 249° West 380 437 14,100 -3,435 Descending Chicago Center
Tue 01:55:56 PM 42.4256 -87.2178 250° West 374 430 10,600 -1,984 Descending Chicago Center
Tue 01:56:58 PM 42.3906 -87.3461 250° West 367 422 10,000 -290 Descending Chicago Center
Tue 01:58:00 PM 42.3536 -87.4792 249° West 354 407 10,000  Level Chicago Center
Tue 01:59:02 PM 42.2914 -87.5828 231° Southwest 365 420 10,000  Level Chicago Center
Tue 02:00:04 PM 42.2133 -87.6675 219° Southwest 362 417 10,000  Level Chicago Center
Tue 02:01:07 PM 42.1200 -87.7625 217° Southwest 353 406 10,000 -297 Level Chicago Center
Tue 02:01:45 PM 42.0667 -87.7833 196° South 294 338 9,500 -913 Descending Chicago TRACON
Tue 02:02:39 PM 42.0000 -87.8000 191° South 298 343 8,600 -1,000 Descending Chicago TRACON
Tue 02:03:45 PM 41.9167 -87.8167 188° South 258 297 7,500 -1,182 Descending Chicago TRACON
Tue 02:04:51 PM 41.8667 -87.8667 217° Southwest 212 244 6,000 -1,213 Descending Chicago TRACON
Tue 02:05:14 PM 41.8522 -87.8789 212° Southwest 227 261 5,700 -1,271 Descending Chicago Center
Tue 02:06:16 PM 41.7983 -87.9333 217° Southwest 211 243 4,200 -823 Descending Chicago Center
Tue 02:07:18 PM 41.7589 -87.9853 224° Southwest 204 235 4,000 -97 Descending Chicago Center
Tue 02:08:20 PM 41.7894 -88.0486 303° West 207 238 4,000 -290 Level Chicago Center
Tue 02:09:22 PM 41.8353 -88.0406 North 199 229 3,400 -629 Descending Chicago Center
Tue 02:10:24 PM 41.8744 -87.9925 42° Northeast 194 223 2,700 -795 Descending Chicago Center
Tue 02:10:45 PM 41.9000 -87.9667 37° Northeast 183 211 2,300 -880 Descending Chicago TRACON
Tue 02:11:39 PM 41.9167 -87.9333 56° Northeast 142 163 1,600 -789 Descending Chicago TRACON
Tue 02:12:39 PM 41.9500 -87.9000 37° Northeast 135 155 800 -800 Descending Chicago TRACON
Tue 02:14:00 PM 41.9667 -87.9000 11° North  Level FlightAware Approximate

Login

Don't have an account? Register now (free) for customized features, flight alerts, and more!